sensor_id;sensor_type;location;lat;lon;timestamp;pressure;altitude;pressure_sealevel;temperature;humidity
57668;BME280;43499;52.366;12.912;2023-07-29T00:00:30;100480.75;;;17.83;100.00
57668;BME280;43499;52.366;12.912;2023-07-29T00:01:35;100454.47;;;17.71;100.00
57668;BME280;43499;52.366;12.912;2023-07-29T00:02:36;100468.81;;;17.74;100.00
57668;BME280;43499;52.366;12.912;2023-07-29T00:03:37;100478.59;;;17.76;100.00
57668;BME280;43499;52.366;12.912;2023-07-29T00:04:38;100465.56;;;17.62;100.00
57668;BME280;43499;52.366;12.912;2023-07-29T00:05:40;100476.13;;;17.61;100.00
57668;BME280;43499;52.366;12.912;2023-07-29T00:06:41;100469.88;;;17.60;100.00
57668;BME280;43499;52.366;12.912;2023-07-29T00:07:43;100444.78;;;17.35;100.00
57668;BME280;43499;52.366;12.912;2023-07-29T00:08:44;100453.81;;;17.39;100.00
57668;BME280;43499;52.366;12.912;2023-07-29T00:09:45;100458.34;;;17.41;100.00
57668;BME280;43499;52.366;12.912;2023-07-29T00:10:46;100472.09;;;17.51;100.00
57668;BME280;43499;52.366;12.912;2023-07-29T00:11:47;100470.03;;;17.45;100.00
57668;BME280;43499;52.366;12.912;2023-07-29T00:12:48;100469.97;;;17.43;100.00
57668;BME280;43499;52.366;12.912;2023-07-29T00:13:49;100466.56;;;17.46;100.00
57668;BME280;43499;52.366;12.912;2023-07-29T00:14:51;100465.66;;;17.46;100.00
57668;BME280;43499;52.366;12.912;2023-07-29T00:15:54;100451.22;;;17.40;100.00
57668;BME280;43499;52.366;12.912;2023-07-29T00:16:56;100462.16;;;17.47;100.00
57668;BME280;43499;52.366;12.912;2023-07-29T00:17:57;100456.84;;;17.47;100.00
57668;BME280;43499;52.366;12.912;2023-07-29T00:18:59;100466.03;;;17.53;100.00
57668;BME280;43499;52.366;12.912;2023-07-29T00:20:00;100455.16;;;17.49;100.00
57668;BME280;43499;52.366;12.912;2023-07-29T00:21:01;100459.72;;;17.51;100.00
57668;BME280;43499;52.366;12.912;2023-07-29T00:22:02;100465.09;;;17.53;100.00
57668;BME280;43499;52.366;12.912;2023-07-29T00:23:03;100457.75;;;17.47;100.00
57668;BME280;43499;52.366;12.912;2023-07-29T00:24:04;100438.94;;;17.42;100.00
57668;BME280;43499;52.366;12.912;2023-07-29T00:25:06;100466.31;;;17.60;100.00
57668;BME280;43499;52.366;12.912;2023-07-29T00:26:07;100468.81;;;17.56;100.00
57668;BME280;43499;52.366;12.912;2023-07-29T00:27:08;100465.31;;;17.57;100.00
57668;BME280;43499;52.366;12.912;2023-07-29T00:28:09;100466.25;;;17.58;100.00
57668;BME280;43499;52.366;12.912;2023-07-29T00:29:10;100447.34;;;17.52;100.00
57668;BME280;43499;52.366;12.912;2023-07-29T00:30:11;100455.25;;;17.50;100.00
57668;BME280;43499;52.366;12.912;2023-07-29T00:31:13;100447.19;;;17.49;100.00
57668;BME280;43499;52.366;12.912;2023-07-29T00:32:14;100440.81;;;17.45;100.00
57668;BME280;43499;52.366;12.912;2023-07-29T00:33:15;100454.53;;;17.54;100.00
57668;BME280;43499;52.366;12.912;2023-07-29T00:34:16;100452.59;;;17.50;100.00
57668;BME280;43499;52.366;12.912;2023-07-29T00:35:20;100453.59;;;17.52;100.00
57668;BME280;43499;52.366;12.912;2023-07-29T00:36:21;100451.66;;;17.50;100.00
57668;BME280;43499;52.366;12.912;2023-07-29T00:37:22;100450.94;;;17.52;100.00
57668;BME280;43499;52.366;12.912;2023-07-29T00:38:23;100447.28;;;17.50;100.00
57668;BME280;43499;52.366;12.912;2023-07-29T00:39:24;100453.50;;;17.51;100.00
57668;BME280;43499;52.366;12.912;2023-07-29T00:40:27;100431.84;;;17.43;100.00
57668;BME280;43499;52.366;12.912;2023-07-29T00:41:29;100416.53;;;17.37;100.00
57668;BME280;43499;52.366;12.912;2023-07-29T00:42:30;100443.78;;;17.51;100.00
57668;BME280;43499;52.366;12.912;2023-07-29T00:43:31;100434.81;;;17.49;100.00
57668;BME280;43499;52.366;12.912;2023-07-29T00:44:32;100431.13;;;17.46;100.00
57668;BME280;43499;52.366;12.912;2023-07-29T00:45:36;100439.38;;;17.52;100.00
57668;BME280;43499;52.366;12.912;2023-07-29T00:46:37;100440.28;;;17.52;100.00
57668;BME280;43499;52.366;12.912;2023-07-29T00:47:39;100440.13;;;17.49;100.00
57668;BME280;43499;52.366;12.912;2023-07-29T00:48:40;100434.66;;;17.46;100.00
57668;BME280;43499;52.366;12.912;2023-07-29T00:49:43;100437.41;;;17.48;100.00
57668;BME280;43499;52.366;12.912;2023-07-29T00:50:44;100434.50;;;17.43;100.00
57668;BME280;43499;52.366;12.912;2023-07-29T00:51:46;100433.47;;;17.39;100.00
57668;BME280;43499;52.366;12.912;2023-07-29T00:52:49;100429.06;;;17.40;100.00
57668;BME280;43499;52.366;12.912;2023-07-29T00:53:50;100433.63;;;17.42;100.00
57668;BME280;43499;52.366;12.912;2023-07-29T00:54:51;100428.47;;;17.46;100.00
57668;BME280;43499;52.366;12.912;2023-07-29T00:55:52;100424.03;;;17.46;100.00
57668;BME280;43499;52.366;12.912;2023-07-29T00:56:53;100423.06;;;17.44;100.00
57668;BME280;43499;52.366;12.912;2023-07-29T00:57:54;100421.78;;;17.36;100.00
57668;BME280;43499;52.366;12.912;2023-07-29T00:58:55;100413.59;;;17.31;100.00
57668;BME280;43499;52.366;12.912;2023-07-29T01:00:02;100420.09;;;17.38;100.00
57668;BME280;43499;52.366;12.912;2023-07-29T01:01:06;100425.44;;;17.38;100.00
57668;BME280;43499;52.366;12.912;2023-07-29T01:02:07;100410.09;;;17.32;100.00
57668;BME280;43499;52.366;12.912;2023-07-29T01:03:09;100417.91;;;17.29;100.00
57668;BME280;43499;52.366;12.912;2023-07-29T01:04:10;100427.69;;;17.30;100.00
57668;BME280;43499;52.366;12.912;2023-07-29T01:05:16;100414.25;;;17.27;100.00
57668;BME280;43499;52.366;12.912;2023-07-29T01:06:32;100418.06;;;17.32;100.00
57668;BME280;43499;52.366;12.912;2023-07-29T01:07:47;100420.88;;;17.35;100.00
57668;BME280;43499;52.366;12.912;2023-07-29T01:09:04;100419.19;;;17.37;100.00
57668;BME280;43499;52.366;12.912;2023-07-29T01:10:29;100410.66;;;17.25;100.00
57668;BME280;43499;52.366;12.912;2023-07-29T01:11:44;100414.41;;;17.30;100.00
57668;BME280;43499;52.366;12.912;2023-07-29T01:13:15;100410.78;;;17.28;100.00
57668;BME280;43499;52.366;12.912;2023-07-29T01:15:49;100416.03;;;17.26;100.00
57668;BME280;43499;52.366;12.912;2023-07-29T01:16:56;100421.16;;;17.23;100.00
57668;BME280;43499;52.366;12.912;2023-07-29T01:18:05;100399.69;;;17.01;100.00
57668;BME280;43499;52.366;12.912;2023-07-29T01:19:22;100420.66;;;17.13;100.00
57668;BME280;43499;52.366;12.912;2023-07-29T01:20:32;100409.66;;;17.05;100.00
57668;BME280;43499;52.366;12.912;2023-07-29T01:21:35;100423.31;;;17.13;100.00
57668;BME280;43499;52.366;12.912;2023-07-29T01:22:37;100425.81;;;17.09;100.00
57668;BME280;43499;52.366;12.912;2023-07-29T01:23:38;100428.75;;;16.98;100.00
57668;BME280;43499;52.366;12.912;2023-07-29T01:24:40;100425.03;;;16.94;100.00
57668;BME280;43499;52.366;12.912;2023-07-29T01:25:41;100420.28;;;16.88;100.00
57668;BME280;43499;52.366;12.912;2023-07-29T01:26:42;100422.53;;;16.97;100.00
57668;BME280;43499;52.366;12.912;2023-07-29T01:27:45;100423.09;;;16.91;100.00
57668;BME280;43499;52.366;12.912;2023-07-29T01:28:47;100420.50;;;16.93;100.00
57668;BME280;43499;52.366;12.912;2023-07-29T01:29:48;100416.81;;;16.89;100.00
57668;BME280;43499;52.366;12.912;2023-07-29T01:30:51;100410.72;;;16.92;100.00
57668;BME280;43499;52.366;12.912;2023-07-29T01:32:07;100416.34;;;16.96;100.00
57668;BME280;43499;52.366;12.912;2023-07-29T01:34:24;100415.34;;;16.94;100.00
57668;BME280;43499;52.366;12.912;2023-07-29T01:35:51;100409.09;;;16.94;100.00
57668;BME280;43499;52.366;12.912;2023-07-29T01:36:54;100409.44;;;16.84;100.00
57668;BME280;43499;52.366;12.912;2023-07-29T01:38:03;100416.34;;;16.96;100.00
57668;BME280;43499;52.366;12.912;2023-07-29T01:39:06;100416.47;;;17.00;100.00
57668;BME280;43499;52.366;12.912;2023-07-29T01:40:08;100412.06;;;17.00;100.00
57668;BME280;43499;52.366;12.912;2023-07-29T01:41:10;100405.50;;;16.93;100.00
57668;BME280;43499;52.366;12.912;2023-07-29T01:42:11;100411.91;;;16.97;100.00
57668;BME280;43499;52.366;12.912;2023-07-29T01:43:12;100406.44;;;16.94;100.00
57668;BME280;43499;52.366;12.912;2023-07-29T01:44:14;100411.09;;;16.98;100.00
57668;BME280;43499;52.366;12.912;2023-07-29T01:45:15;100407.38;;;16.94;100.00
57668;BME280;43499;52.366;12.912;2023-07-29T01:46:17;100408.28;;;16.95;100.00
57668;BME280;43499;52.366;12.912;2023-07-29T01:47:18;100409.09;;;16.94;100.00
57668;BME280;43499;52.366;12.912;2023-07-29T01:48:19;100416.13;;;16.93;100.00
57668;BME280;43499;52.366;12.912;2023-07-29T01:49:23;100411.91;;;16.97;100.00
57668;BME280;43499;52.366;12.912;2023-07-29T01:50:24;100413.38;;;16.92;100.00
57668;BME280;43499;52.366;12.912;2023-07-29T01:51:25;100398.91;;;16.85;100.00
57668;BME280;43499;52.366;12.912;2023-07-29T01:52:26;100416.13;;;16.93;100.00
57668;BME280;43499;52.366;12.912;2023-07-29T01:53:28;100419.81;;;16.95;100.00
57668;BME280;43499;52.366;12.912;2023-07-29T01:54:29;100421.53;;;16.95;100.00
57668;BME280;43499;52.366;12.912;2023-07-29T01:55:30;100401.69;;;16.88;100.00
57668;BME280;43499;52.366;12.912;2023-07-29T01:56:31;100408.16;;;16.93;100.00
57668;BME280;43499;52.366;12.912;2023-07-29T01:57:32;100403.53;;;16.89;100.00
57668;BME280;43499;52.366;12.912;2023-07-29T01:58:33;100408.94;;;16.91;100.00
57668;BME280;43499;52.366;12.912;2023-07-29T01:59:35;100409.00;;;16.92;100.00
57668;BME280;43499;52.366;12.912;2023-07-29T02:00:36;100415.34;;;16.94;100.00
57668;BME280;43499;52.366;12.912;2023-07-29T02:01:37;100421.72;;;16.98;100.00
57668;BME280;43499;52.366;12.912;2023-07-29T02:02:38;100398.22;;;16.89;100.00
57668;BME280;43499;52.366;12.912;2023-07-29T02:03:39;100415.56;;;16.99;100.00
57668;BME280;43499;52.366;12.912;2023-07-29T02:04:40;100407.13;;;16.90;100.00
57668;BME280;43499;52.366;12.912;2023-07-29T02:05:41;100409.91;;;16.93;100.00
57668;BME280;43499;52.366;12.912;2023-07-29T02:06:44;100413.69;;;16.96;100.00
57668;BME280;43499;52.366;12.912;2023-07-29T02:07:46;100408.94;;;16.91;100.00
57668;BME280;43499;52.366;12.912;2023-07-29T02:08:47;100418.13;;;16.98;100.00
57668;BME280;43499;52.366;12.912;2023-07-29T02:09:48;100408.44;;;16.98;100.00
57668;BME280;43499;52.366;12.912;2023-07-29T02:10:49;100399.16;;;16.90;100.00
57668;BME280;43499;52.366;12.912;2023-07-29T02:11:50;100419.06;;;16.98;100.00
57668;BME280;43499;52.366;12.912;2023-07-29T02:12:52;100417.22;;;16.97;100.00
57668;BME280;43499;52.366;12.912;2023-07-29T02:13:54;100413.69;;;16.96;100.00
57668;BME280;43499;52.366;12.912;2023-07-29T02:14:55;100409.00;;;16.92;100.00
57668;BME280;43499;52.366;12.912;2023-07-29T02:15:56;100406.44;;;16.94;100.00
57668;BME280;43499;52.366;12.912;2023-07-29T02:16:57;100407.44;;;16.96;100.00
57668;BME280;43499;52.366;12.912;2023-07-29T02:17:58;100411.91;;;16.97;100.00
57668;BME280;43499;52.366;12.912;2023-07-29T02:19:00;100393.75;;;16.88;100.00
57668;BME280;43499;52.366;12.912;2023-07-29T02:20:03;100402.75;;;16.92;100.00
57668;BME280;43499;52.366;12.912;2023-07-29T02:21:04;100409.25;;;16.97;100.00
57668;BME280;43499;52.366;12.912;2023-07-29T02:22:05;100410.81;;;16.93;100.00
57668;BME280;43499;52.366;12.912;2023-07-29T02:23:07;100412.69;;;16.94;100.00
57668;BME280;43499;52.366;12.912;2023-07-29T02:24:08;100417.63;;;16.88;100.00
57668;BME280;43499;52.366;12.912;2023-07-29T02:25:09;100411.69;;;16.76;100.00
57668;BME280;43499;52.366;12.912;2023-07-29T02:26:11;100418.75;;;16.75;100.00
57668;BME280;43499;52.366;12.912;2023-07-29T02:27:12;100413.34;;;16.74;100.00
57668;BME280;43499;52.366;12.912;2023-07-29T02:28:13;100414.44;;;16.77;100.00
57668;BME280;43499;52.366;12.912;2023-07-29T02:29:14;100413.63;;;16.78;100.00
57668;BME280;43499;52.366;12.912;2023-07-29T02:30:16;100404.50;;;16.73;100.00
57668;BME280;43499;52.366;12.912;2023-07-29T02:31:21;100411.19;;;16.83;100.00
57668;BME280;43499;52.366;12.912;2023-07-29T02:32:23;100414.09;;;16.88;100.00
57668;BME280;43499;52.366;12.912;2023-07-29T02:33:24;100388.63;;;16.75;100.00
57668;BME280;43499;52.366;12.912;2023-07-29T02:34:26;100401.69;;;16.88;100.00
57668;BME280;43499;52.366;12.912;2023-07-29T02:35:27;100425.03;;;16.94;100.00
57668;BME280;43499;52.366;12.912;2023-07-29T02:36:28;100408.00;;;16.90;100.00
57668;BME280;43499;52.366;12.912;2023-07-29T02:37:29;100408.00;;;16.90;100.00
57668;BME280;43499;52.366;12.912;2023-07-29T02:38:31;100403.63;;;16.91;100.00
57668;BME280;43499;52.366;12.912;2023-07-29T02:39:32;100413.81;;;17.00;100.00
57668;BME280;43499;52.366;12.912;2023-07-29T02:40:34;100407.50;;;16.98;100.00
57668;BME280;43499;52.366;12.912;2023-07-29T02:41:36;100397.66;;;16.95;100.00
57668;BME280;43499;52.366;12.912;2023-07-29T02:42:37;100409.50;;;17.02;100.00
57668;BME280;43499;52.366;12.912;2023-07-29T02:43:39;100416.63;;;17.03;100.00
57668;BME280;43499;52.366;12.912;2023-07-29T02:44:42;100421.09;;;17.04;100.00
57668;BME280;43499;52.366;12.912;2023-07-29T02:45:43;100406.53;;;16.95;100.00
57668;BME280;43499;52.366;12.912;2023-07-29T02:46:44;100386.38;;;16.83;100.00
57668;BME280;43499;52.366;12.912;2023-07-29T02:47:45;100412.97;;;17.01;100.00
57668;BME280;43499;52.366;12.912;2023-07-29T02:48:46;100412.91;;;16.99;100.00
57668;BME280;43499;52.366;12.912;2023-07-29T02:49:47;100419.13;;;17.00;100.00
57668;BME280;43499;52.366;12.912;2023-07-29T02:50:48;100413.06;;;17.02;100.00
57668;BME280;43499;52.366;12.912;2023-07-29T02:51:49;100414.13;;;17.06;100.00
57668;BME280;43499;52.366;12.912;2023-07-29T02:52:51;100400.47;;;16.98;100.00
57668;BME280;43499;52.366;12.912;2023-07-29T02:53:53;100409.81;;;17.08;100.00
57668;BME280;43499;52.366;12.912;2023-07-29T02:54:54;100408.88;;;17.07;100.00
57668;BME280;43499;52.366;12.912;2023-07-29T02:55:55;100416.09;;;17.10;100.00
57668;BME280;43499;52.366;12.912;2023-07-29T02:56:56;100415.19;;;17.09;100.00
57668;BME280;43499;52.366;12.912;2023-07-29T02:57:57;100426.09;;;17.16;100.00
57668;BME280;43499;52.366;12.912;2023-07-29T02:58:59;100412.53;;;17.09;100.00
57668;BME280;43499;52.366;12.912;2023-07-29T03:00:02;100416.91;;;17.09;100.00
57668;BME280;43499;52.366;12.912;2023-07-29T03:01:04;100421.28;;;17.07;100.00
57668;BME280;43499;52.366;12.912;2023-07-29T03:02:06;100424.38;;;16.98;100.00
57668;BME280;43499;52.366;12.912;2023-07-29T03:03:08;100417.06;;;16.94;100.00
57668;BME280;43499;52.366;12.912;2023-07-29T03:04:09;100412.56;;;16.93;100.00
57668;BME280;43499;52.366;12.912;2023-07-29T03:05:10;100421.34;;;16.92;100.00
57668;BME280;43499;52.366;12.912;2023-07-29T03:06:13;100426.44;;;16.87;100.00
57668;BME280;43499;52.366;12.912;2023-07-29T03:07:14;100411.25;;;16.85;100.00
57668;BME280;43499;52.366;12.912;2023-07-29T03:08:15;100392.59;;;16.65;100.00
57668;BME280;43499;52.366;12.912;2023-07-29T03:09:16;100421.94;;;16.86;100.00
57668;BME280;43499;52.366;12.912;2023-07-29T03:10:18;100404.19;;;16.67;100.00
57668;BME280;43499;52.366;12.912;2023-07-29T03:11:19;100389.16;;;16.68;100.00
57668;BME280;43499;52.366;12.912;2023-07-29T03:12:20;100388.56;;;16.73;100.00
57668;BME280;43499;52.366;12.912;2023-07-29T03:13:22;100415.69;;;16.84;100.00
57668;BME280;43499;52.366;12.912;2023-07-29T03:14:23;100411.25;;;16.85;100.00
57668;BME280;43499;52.366;12.912;2023-07-29T03:15:25;100407.72;;;16.84;100.00
57668;BME280;43499;52.366;12.912;2023-07-29T03:16:26;100412.19;;;16.85;100.00
57668;BME280;43499;52.366;12.912;2023-07-29T03:17:30;100380.97;;;16.63;100.00
57668;BME280;43499;52.366;12.912;2023-07-29T03:18:31;100410.03;;;16.78;100.00
57668;BME280;43499;52.366;12.912;2023-07-29T03:19:32;100404.50;;;16.73;100.00
57668;BME280;43499;52.366;12.912;2023-07-29T03:20:33;100412.78;;;16.79;100.00
57668;BME280;43499;52.366;12.912;2023-07-29T03:21:34;100406.63;;;16.80;100.00
57668;BME280;43499;52.366;12.912;2023-07-29T03:22:35;100405.72;;;16.80;100.00
57668;BME280;43499;52.366;12.912;2023-07-29T03:23:37;100405.72;;;16.80;100.00
57668;BME280;43499;52.366;12.912;2023-07-29T03:24:38;100392.22;;;16.75;100.00
57668;BME280;43499;52.366;12.912;2023-07-29T03:25:40;100390.78;;;16.82;100.00
57668;BME280;43499;52.366;12.912;2023-07-29T03:26:41;100395.34;;;16.85;100.00
57668;BME280;43499;52.366;12.912;2023-07-29T03:27:42;100392.75;;;16.86;100.00
57668;BME280;43499;52.366;12.912;2023-07-29T03:28:43;100398.16;;;16.88;100.00
57668;BME280;43499;52.366;12.912;2023-07-29T03:29:44;100392.00;;;16.89;100.00
57668;BME280;43499;52.366;12.912;2023-07-29T03:30:45;100384.72;;;16.85;100.00
57668;BME280;43499;52.366;12.912;2023-07-29T03:31:46;100391.19;;;16.90;100.00
57668;BME280;43499;52.366;12.912;2023-07-29T03:32:49;100399.22;;;16.91;100.00
57668;BME280;43499;52.366;12.912;2023-07-29T03:33:50;100392.25;;;16.93;100.00
57668;BME280;43499;52.366;12.912;2023-07-29T03:34:51;100399.41;;;16.94;100.00
57668;BME280;43499;52.366;12.912;2023-07-29T03:35:52;100399.47;;;16.96;100.00
57668;BME280;43499;52.366;12.912;2023-07-29T03:36:54;100394.16;;;16.96;100.00
57668;BME280;43499;52.366;12.912;2023-07-29T03:37:55;100398.72;;;16.99;100.00
57668;BME280;43499;52.366;12.912;2023-07-29T03:38:56;100386.84;;;16.92;100.00
57668;BME280;43499;52.366;12.912;2023-07-29T03:39:57;100378.75;;;16.89;100.00
57668;BME280;43499;52.366;12.912;2023-07-29T03:40:58;100396.75;;;16.94;100.00
57668;BME280;43499;52.366;12.912;2023-07-29T03:41:59;100394.16;;;16.96;100.00
57668;BME280;43499;52.366;12.912;2023-07-29T03:43:00;100393.06;;;16.92;100.00
57668;BME280;43499;52.366;12.912;2023-07-29T03:44:01;100398.72;;;16.99;100.00
57668;BME280;43499;52.366;12.912;2023-07-29T03:45:03;100401.34;;;16.99;100.00
57668;BME280;43499;52.366;12.912;2023-07-29T03:46:04;100399.63;;;16.99;100.00
57668;BME280;43499;52.366;12.912;2023-07-29T03:47:07;100387.75;;;16.92;100.00
57668;BME280;43499;52.366;12.912;2023-07-29T03:48:09;100400.63;;;17.01;100.00
57668;BME280;43499;52.366;12.912;2023-07-29T03:49:10;100404.19;;;17.02;100.00
57668;BME280;43499;52.366;12.912;2023-07-29T03:50:12;100392.44;;;16.96;100.00
57668;BME280;43499;52.366;12.912;2023-07-29T03:51:13;100384.13;;;16.90;100.00
57668;BME280;43499;52.366;12.912;2023-07-29T03:52:14;100404.84;;;16.98;100.00
57668;BME280;43499;52.366;12.912;2023-07-29T03:53:15;100402.34;;;17.01;100.00
57668;BME280;43499;52.366;12.912;2023-07-29T03:54:16;100386.84;;;16.92;100.00
57668;BME280;43499;52.366;12.912;2023-07-29T03:55:18;100394.22;;;16.98;100.00
57668;BME280;43499;52.366;12.912;2023-07-29T03:56:19;100388.59;;;16.91;100.00
57668;BME280;43499;52.366;12.912;2023-07-29T03:57:20;100382.28;;;16.89;100.00
57668;BME280;43499;52.366;12.912;2023-07-29T03:58:22;100397.66;;;16.95;100.00
57668;BME280;43499;52.366;12.912;2023-07-29T03:59:24;100384.28;;;16.93;100.00
57668;BME280;43499;52.366;12.912;2023-07-29T04:00:25;100396.81;;;16.96;100.00
57668;BME280;43499;52.366;12.912;2023-07-29T04:01:27;100402.13;;;16.96;100.00
57668;BME280;43499;52.366;12.912;2023-07-29T04:02:28;100393.97;;;16.93;100.00
57668;BME280;43499;52.366;12.912;2023-07-29T04:03:29;100393.16;;;16.94;100.00
57668;BME280;43499;52.366;12.912;2023-07-29T04:04:31;100387.69;;;16.91;100.00
57668;BME280;43499;52.366;12.912;2023-07-29T04:05:32;100394.78;;;16.92;100.00
57668;BME280;43499;52.366;12.912;2023-07-29T04:06:33;100393.00;;;16.91;100.00
57668;BME280;43499;52.366;12.912;2023-07-29T04:07:35;100399.63;;;16.99;100.00
57668;BME280;43499;52.366;12.912;2023-07-29T04:08:36;100394.50;;;17.02;100.00
57668;BME280;43499;52.366;12.912;2023-07-29T04:09:38;100391.72;;;17.01;100.00
57668;BME280;43499;52.366;12.912;2023-07-29T04:10:39;100402.69;;;17.07;100.00
57668;BME280;43499;52.366;12.912;2023-07-29T04:11:40;100402.91;;;17.11;100.00
57668;BME280;43499;52.366;12.912;2023-07-29T04:12:43;100350.28;;;16.86;100.00
57668;BME280;43499;52.366;12.912;2023-07-29T04:13:44;100396.53;;;17.08;100.00
57668;BME280;43499;52.366;12.912;2023-07-29T04:14:45;100385.31;;;17.14;100.00
57668;BME280;43499;52.366;12.912;2023-07-29T04:15:46;100382.94;;;17.20;100.00
57668;BME280;43499;52.366;12.912;2023-07-29T04:16:47;100383.00;;;17.21;100.00
57668;BME280;43499;52.366;12.912;2023-07-29T04:17:50;100374.13;;;17.21;100.00
57668;BME280;43499;52.366;12.912;2023-07-29T04:18:51;100360.03;;;17.22;100.00
57668;BME280;43499;52.366;12.912;2023-07-29T04:19:52;100374.16;;;17.40;100.00
57668;BME280;43499;52.366;12.912;2023-07-29T04:20:55;100366.91;;;17.36;100.00
57668;BME280;43499;52.366;12.912;2023-07-29T04:21:56;100380.22;;;17.56;100.00
57668;BME280;43499;52.366;12.912;2023-07-29T04:22:57;100381.44;;;17.63;100.00
57668;BME280;43499;52.366;12.912;2023-07-29T04:23:58;100376.53;;;17.72;100.00
57668;BME280;43499;52.366;12.912;2023-07-29T04:24:59;100377.72;;;17.79;100.00
57668;BME280;43499;52.366;12.912;2023-07-29T04:26:00;100396.59;;;17.85;100.00
57668;BME280;43499;52.366;12.912;2023-07-29T04:27:02;100389.00;;;17.93;100.00
57668;BME280;43499;52.366;12.912;2023-07-29T04:28:03;100397.50;;;18.03;100.00
57668;BME280;43499;52.366;12.912;2023-07-29T04:29:06;100392.59;;;18.13;100.00
57668;BME280;43499;52.366;12.912;2023-07-29T04:30:07;100380.63;;;18.23;100.00
57668;BME280;43499;52.366;12.912;2023-07-29T04:31:08;100375.31;;;18.23;100.00
57668;BME280;43499;52.366;12.912;2023-07-29T04:32:10;100377.69;;;18.16;100.00
57668;BME280;43499;52.366;12.912;2023-07-29T04:33:11;100382.84;;;18.33;100.00
57668;BME280;43499;52.366;12.912;2023-07-29T04:34:13;100374.34;;;18.42;100.00
57668;BME280;43499;52.366;12.912;2023-07-29T04:35:14;100366.06;;;18.34;100.00
57668;BME280;43499;52.366;12.912;2023-07-29T04:36:15;100377.22;;;18.06;100.00
57668;BME280;43499;52.366;12.912;2023-07-29T04:37:19;100394.97;;;18.07;100.00
57668;BME280;43499;52.366;12.912;2023-07-29T04:38:20;100381.25;;;17.97;100.00
57668;BME280;43499;52.366;12.912;2023-07-29T04:39:21;100394.97;;;18.07;100.00
57668;BME280;43499;52.366;12.912;2023-07-29T04:40:22;100395.06;;;18.08;100.00
57668;BME280;43499;52.366;12.912;2023-07-29T04:41:23;100390.84;;;18.13;100.00
57668;BME280;43499;52.366;12.912;2023-07-29T04:42:25;100394.69;;;18.20;100.00
57668;BME280;43499;52.366;12.912;2023-07-29T04:43:27;100374.97;;;18.15;100.00
57668;BME280;43499;52.366;12.912;2023-07-29T04:44:30;100366.19;;;18.17;100.00
57668;BME280;43499;52.366;12.912;2023-07-29T04:45:31;100382.28;;;18.40;100.00
57668;BME280;43499;52.366;12.912;2023-07-29T04:46:33;100359.69;;;18.52;100.00
57668;BME280;43499;52.366;12.912;2023-07-29T04:47:35;100359.56;;;18.70;100.00
57668;BME280;43499;52.366;12.912;2023-07-29T04:48:36;100372.38;;;19.00;100.00
57668;BME280;43499;52.366;12.912;2023-07-29T04:49:37;100378.50;;;18.97;100.00
57668;BME280;43499;52.366;12.912;2023-07-29T04:50:38;100383.69;;;18.94;100.00
57668;BME280;43499;52.366;12.912;2023-07-29T04:51:39;100384.38;;;19.11;100.00
57668;BME280;43499;52.366;12.912;2023-07-29T04:52:40;100378.56;;;19.21;100.00
57668;BME280;43499;52.366;12.912;2023-07-29T04:53:42;100378.97;;;19.31;100.00
57668;BME280;43499;52.366;12.912;2023-07-29T04:54:43;100365.16;;;19.18;100.00
57668;BME280;43499;52.366;12.912;2023-07-29T04:55:44;100382.78;;;19.15;100.00
57668;BME280;43499;52.366;12.912;2023-07-29T04:56:45;100367.97;;;19.00;100.00
57668;BME280;43499;52.366;12.912;2023-07-29T04:57:46;100375.03;;;19.00;100.00
57668;BME280;43499;52.366;12.912;2023-07-29T04:58:47;100369.75;;;18.80;100.00
57668;BME280;43499;52.366;12.912;2023-07-29T04:59:48;100381.34;;;18.80;100.00
57668;BME280;43499;52.366;12.912;2023-07-29T05:00:49;100385.03;;;18.84;100.00
57668;BME280;43499;52.366;12.912;2023-07-29T05:01:51;100379.72;;;18.84;100.00
57668;BME280;43499;52.366;12.912;2023-07-29T05:02:52;100395.13;;;18.93;100.00
57668;BME280;43499;52.366;12.912;2023-07-29T05:03:53;100395.78;;;18.87;100.00
57668;BME280;43499;52.366;12.912;2023-07-29T05:04:54;100394.84;;;19.06;100.00
57668;BME280;43499;52.366;12.912;2023-07-29T05:05:55;100385.16;;;19.30;100.00
57668;BME280;43499;52.366;12.912;2023-07-29T05:06:58;100381.16;;;19.41;100.00
57668;BME280;43499;52.366;12.912;2023-07-29T05:07:59;100389.19;;;19.65;100.00
57668;BME280;43499;52.366;12.912;2023-07-29T05:09:15;100391.69;;;19.85;100.00
57668;BME280;43499;52.366;12.912;2023-07-29T05:10:17;100388.59;;;19.95;100.00
57668;BME280;43499;52.366;12.912;2023-07-29T05:11:18;100393.34;;;20.04;100.00
57668;BME280;43499;52.366;12.912;2023-07-29T05:12:19;100383.59;;;19.82;100.00
57668;BME280;43499;52.366;12.912;2023-07-29T05:13:20;100387.97;;;19.80;100.00
57668;BME280;43499;52.366;12.912;2023-07-29T05:14:22;100393.31;;;19.80;100.00
57668;BME280;43499;52.366;12.912;2023-07-29T05:15:23;100394.94;;;19.76;100.00
57668;BME280;43499;52.366;12.912;2023-07-29T05:16:27;100356.94;;;19.82;100.00
57668;BME280;43499;52.366;12.912;2023-07-29T05:17:28;100379.00;;;20.00;100.00
57668;BME280;43499;52.366;12.912;2023-07-29T05:18:29;100365.72;;;19.79;100.00
57668;BME280;43499;52.366;12.912;2023-07-29T05:19:30;100360.28;;;19.76;100.00